createdAt,value
2023-01-12T00:01:28.582Z,40.40
2023-01-12T00:04:15.920Z,41.10
2023-01-12T00:07:05.728Z,42.70
2023-01-12T00:09:52.388Z,40.40
2023-01-12T00:12:39.071Z,45.00
2023-01-12T00:15:58.211Z,43.10
2023-01-12T00:18:45.576Z,45.60
2023-01-12T00:21:38.421Z,44.90
2023-01-12T00:24:52.568Z,44.90
2023-01-12T00:27:39.144Z,46.30
2023-01-12T00:30:25.620Z,49.90
2023-01-12T00:33:14.026Z,51.00
2023-01-12T00:36:05.536Z,52.30
2023-01-12T00:38:51.846Z,50.70
2023-01-12T00:41:59.282Z,51.50
2023-01-12T00:45:04.504Z,54.30
2023-01-12T00:47:51.788Z,53.70
2023-01-12T00:50:38.984Z,59.60
2023-01-12T00:53:25.423Z,53.20
2023-01-12T00:56:12.078Z,54.70
2023-01-12T00:58:59.018Z,54.60
2023-01-12T01:01:45.883Z,51.80
2023-01-12T01:04:35.071Z,52.30
2023-01-12T01:07:24.339Z,51.70
2023-01-12T01:10:11.843Z,52.70
2023-01-12T01:12:58.529Z,49.50
2023-01-12T01:15:45.360Z,52.40
2023-01-12T01:18:32.515Z,50.70
2023-01-12T01:21:19.458Z,49.70
2023-01-12T01:24:10.548Z,46.00
2023-01-12T01:26:57.526Z,48.00
2023-01-12T01:29:44.278Z,41.90
2023-01-12T01:32:30.745Z,42.90
2023-01-12T01:35:17.328Z,40.30
2023-01-12T01:38:05.137Z,41.60
2023-01-12T01:40:51.626Z,39.40
2023-01-12T01:43:52.227Z,39.20
2023-01-12T01:46:47.955Z,38.20
2023-01-12T01:49:39.923Z,41.00
2023-01-12T01:52:40.577Z,36.90
2023-01-12T01:55:34.023Z,39.40
2023-01-12T01:58:27.064Z,42.40
2023-01-12T02:01:13.792Z,41.30
2023-01-12T02:04:01.125Z,43.90
2023-01-12T02:06:48.900Z,46.90
2023-01-12T02:09:36.014Z,43.70
2023-01-12T02:12:41.403Z,43.90
2023-01-12T02:15:58.309Z,48.60
2023-01-12T02:19:21.161Z,46.50
2023-01-12T02:22:43.975Z,46.90
2023-01-12T02:25:56.485Z,47.00
2023-01-12T02:28:55.151Z,43.40
2023-01-12T02:31:41.363Z,45.20
2023-01-12T02:34:52.326Z,46.40
2023-01-12T02:38:00.795Z,47.30
2023-01-12T02:41:06.261Z,47.20
2023-01-12T02:43:53.332Z,46.80
2023-01-12T02:46:42.870Z,49.10
2023-01-12T02:49:36.642Z,48.40
2023-01-12T02:52:27.044Z,46.10
2023-01-12T02:55:16.316Z,48.20
2023-01-12T02:58:07.684Z,46.50
2023-01-12T03:00:58.139Z,47.60
2023-01-12T03:03:46.756Z,46.60
2023-01-12T03:06:43.042Z,48.10
2023-01-12T03:09:34.688Z,46.80
2023-01-12T03:12:26.065Z,46.10
2023-01-12T03:15:16.162Z,46.20
2023-01-12T03:18:12.480Z,45.50
2023-01-12T03:21:31.632Z,49.50
2023-01-12T03:24:25.468Z,42.70
2023-01-12T03:27:28.682Z,46.50
2023-01-12T03:30:20.050Z,46.40
2023-01-12T03:33:07.602Z,46.60
2023-01-12T03:36:06.918Z,44.20
2023-01-12T03:39:02.515Z,45.00
2023-01-12T03:42:05.674Z,45.60
2023-01-12T03:44:52.220Z,45.50
2023-01-12T03:47:43.585Z,46.50
2023-01-12T03:50:48.588Z,45.70
2023-01-12T03:53:37.477Z,44.50
2023-01-12T03:56:29.442Z,46.30
2023-01-12T03:59:16.938Z,47.00
2023-01-12T04:02:04.145Z,47.70
2023-01-12T04:04:51.571Z,45.70
2023-01-12T04:07:38.121Z,45.70
2023-01-12T04:10:24.724Z,45.50
2023-01-12T04:13:12.745Z,47.30
2023-01-12T04:15:59.005Z,49.90
2023-01-12T04:18:45.837Z,45.20
2023-01-12T04:21:51.162Z,45.80
2023-01-12T04:24:38.773Z,47.60
2023-01-12T04:27:25.810Z,50.20
2023-01-12T04:30:12.657Z,49.60
2023-01-12T04:33:01.130Z,48.20
2023-01-12T04:35:47.526Z,51.40
2023-01-12T04:38:34.686Z,54.30
2023-01-12T04:41:23.134Z,52.90
2023-01-12T04:44:09.835Z,51.40
2023-01-12T04:46:56.682Z,51.30
2023-01-12T04:49:43.349Z,50.00
2023-01-12T04:52:30.081Z,53.30
2023-01-12T04:55:16.939Z,53.70
2023-01-12T04:58:03.516Z,50.80
2023-01-12T05:00:50.237Z,52.50
2023-01-12T05:03:36.936Z,55.20
2023-01-12T05:06:24.630Z,53.70
2023-01-12T05:09:30.242Z,53.30
2023-01-12T05:12:16.851Z,53.60
2023-01-12T05:15:03.796Z,52.70
2023-01-12T05:17:50.459Z,49.50
2023-01-12T05:20:37.103Z,52.60
2023-01-12T05:23:23.760Z,53.50
2023-01-12T05:26:11.301Z,53.50
2023-01-12T05:28:57.844Z,51.20
2023-01-12T05:31:44.678Z,52.70
2023-01-12T05:34:31.038Z,53.20
2023-01-12T05:37:17.410Z,52.50
2023-01-12T05:48:41.582Z,39.90
2023-01-12T05:51:31.070Z,49.10
2023-01-12T05:54:17.574Z,46.70
2023-01-12T05:57:03.854Z,49.00
2023-01-12T05:59:50.400Z,49.60
2023-01-12T06:02:37.129Z,46.90
2023-01-12T06:05:23.459Z,47.10
2023-01-12T06:08:10.418Z,48.60
2023-01-12T06:11:01.415Z,45.40
2023-01-12T06:13:57.011Z,44.40
2023-01-12T06:16:43.646Z,48.30
2023-01-12T06:19:31.111Z,47.80
2023-01-12T06:22:19.397Z,47.50
2023-01-12T06:25:06.458Z,45.10
2023-01-12T06:27:53.224Z,45.50
2023-01-12T06:30:39.658Z,46.50
2023-01-12T06:33:27.492Z,47.60
2023-01-12T06:36:14.414Z,44.90
2023-01-12T06:39:01.251Z,44.50
2023-01-12T06:42:06.398Z,46.90
2023-01-12T06:44:52.931Z,45.80
2023-01-12T06:47:50.588Z,48.00
2023-01-12T06:50:38.957Z,46.60
2023-01-12T06:53:25.439Z,47.90
2023-01-12T06:56:20.593Z,46.40
2023-01-12T06:59:07.098Z,44.20
2023-01-12T07:01:54.627Z,46.50
2023-01-12T07:04:41.852Z,46.10
2023-01-12T07:07:28.453Z,45.90
2023-01-12T07:10:15.526Z,45.10
2023-01-12T07:13:01.888Z,42.00
2023-01-12T07:15:51.903Z,44.40
2023-01-12T07:18:39.640Z,41.70
2023-01-12T07:21:26.269Z,42.10
2023-01-12T07:24:12.797Z,42.30
2023-01-12T07:26:59.336Z,42.30
2023-01-12T07:29:47.481Z,39.30
2023-01-12T07:36:27.712Z,37.40
2023-01-12T07:39:14.339Z,35.50
2023-01-12T07:42:19.584Z,34.40
2023-01-12T07:45:10.305Z,33.80
2023-01-12T07:47:57.235Z,33.60
2023-01-12T07:50:43.968Z,30.60
2023-01-12T07:53:30.976Z,30.40
2023-01-12T07:56:17.407Z,33.80
2023-01-12T07:59:04.348Z,29.00
2023-01-12T08:01:53.006Z,30.40
2023-01-12T08:04:40.469Z,31.00
2023-01-12T08:07:26.974Z,30.40
2023-01-12T08:10:16.303Z,28.30
2023-01-12T08:13:03.236Z,30.80
2023-01-12T08:15:54.783Z,32.20
2023-01-12T08:18:54.571Z,28.10
2023-01-12T08:21:48.418Z,30.00
2023-01-12T08:24:41.115Z,27.80
2023-01-12T08:27:32.004Z,26.50
2023-01-12T08:30:21.635Z,30.40
2023-01-12T08:33:08.819Z,28.70
2023-01-12T08:35:55.633Z,27.90
2023-01-12T08:38:43.006Z,31.30
2023-01-12T08:41:33.065Z,25.60
2023-01-12T08:44:20.731Z,27.60
2023-01-12T08:47:16.706Z,27.90
2023-01-12T08:50:05.172Z,26.60
2023-01-12T08:52:51.969Z,30.00
2023-01-12T08:55:38.816Z,25.50
2023-01-12T08:58:25.696Z,26.90
2023-01-12T09:01:14.784Z,25.60
2023-01-12T09:04:01.893Z,23.10
2023-01-12T09:06:48.782Z,24.80
2023-01-12T09:09:36.945Z,23.10
2023-01-12T09:12:24.580Z,19.40
2023-01-12T09:15:12.060Z,21.10
2023-01-12T09:18:01.589Z,18.90
2023-01-12T09:20:48.257Z,17.50
2023-01-12T09:23:35.840Z,16.90
2023-01-12T09:26:26.711Z,18.10
2023-01-12T09:29:17.139Z,15.40
2023-01-12T09:32:04.909Z,17.70
2023-01-12T09:34:51.865Z,17.40
2023-01-12T09:37:43.596Z,18.50
2023-01-12T09:40:30.148Z,16.10
2023-01-12T09:43:35.329Z,18.10
2023-01-12T09:46:56.496Z,15.20
2023-01-12T09:49:53.849Z,15.60
2023-01-12T09:52:57.286Z,17.30
2023-01-12T09:55:55.378Z,16.50
2023-01-12T09:58:58.382Z,17.20
2023-01-12T10:01:45.933Z,15.60
2023-01-12T10:04:32.901Z,16.10
2023-01-12T10:07:19.972Z,16.50
2023-01-12T10:10:06.955Z,15.90
2023-01-12T10:13:00.651Z,16.50
2023-01-12T10:15:54.439Z,14.90
2023-01-12T10:18:47.464Z,14.90
2023-01-12T10:21:35.332Z,15.10
2023-01-12T10:24:24.759Z,12.20
2023-01-12T10:27:15.180Z,13.90
2023-01-12T10:30:02.281Z,14.70
2023-01-12T10:32:48.839Z,13.90
2023-01-12T10:35:35.608Z,11.80
2023-01-12T10:38:28.314Z,12.80
2023-01-12T10:41:20.847Z,11.70
2023-01-12T10:44:18.985Z,11.60
2023-01-12T10:47:10.397Z,14.70
2023-01-12T10:50:25.010Z,11.70
2023-01-12T10:53:17.659Z,12.80
2023-01-12T10:56:52.438Z,11.50
2023-01-12T10:59:40.399Z,13.00
2023-01-12T11:02:29.398Z,13.20
2023-01-12T11:05:38.727Z,13.60
2023-01-12T11:08:28.738Z,11.70
2023-01-12T11:11:40.457Z,10.70
2023-01-12T11:14:29.209Z,10.70
2023-01-12T11:17:58.986Z,10.70
2023-01-12T11:20:50.317Z,8.80
2023-01-12T11:24:25.605Z,11.30
2023-01-12T11:27:27.252Z,11.00
2023-01-12T11:30:23.574Z,9.00
2023-01-12T11:33:20.043Z,11.30
2023-01-12T11:36:17.803Z,10.20
2023-01-12T11:39:12.815Z,8.60
2023-01-12T11:42:29.417Z,9.60
2023-01-12T11:45:29.262Z,10.60
2023-01-12T11:48:46.676Z,10.10
2023-01-12T11:51:45.636Z,8.80
2023-01-12T11:54:33.151Z,10.70
2023-01-12T11:57:45.376Z,10.10
2023-01-12T12:01:08.019Z,9.10
2023-01-12T12:04:15.573Z,9.80
2023-01-12T12:07:36.202Z,9.20
2023-01-12T12:10:34.065Z,9.80
2023-01-12T12:13:46.943Z,10.90
2023-01-12T12:16:42.512Z,10.60
2023-01-12T12:19:41.995Z,9.20
2023-01-12T12:22:43.875Z,10.00
2023-01-12T12:25:52.874Z,9.40
2023-01-12T12:29:07.504Z,10.80
2023-01-12T12:32:02.143Z,9.20
2023-01-12T12:35:13.055Z,11.10
2023-01-12T12:38:15.076Z,9.20
2023-01-12T12:41:50.931Z,7.80
2023-01-12T12:45:21.512Z,9.40
2023-01-12T12:48:27.548Z,7.90
2023-01-12T12:51:16.276Z,10.00
2023-01-12T12:54:18.642Z,10.50
2023-01-12T12:57:10.336Z,9.20
2023-01-12T13:00:00.021Z,9.40
2023-01-12T13:02:58.902Z,7.70
2023-01-12T13:05:48.448Z,8.70
2023-01-12T13:08:41.073Z,8.10
2023-01-12T13:12:00.391Z,8.20
2023-01-12T13:15:23.467Z,9.30
2023-01-12T13:18:40.749Z,8.70
2023-01-12T13:21:32.291Z,8.30
2023-01-12T13:24:40.661Z,8.80
2023-01-12T13:27:47.919Z,8.00
2023-01-12T13:30:51.138Z,9.10
2023-01-12T13:33:40.111Z,7.60
2023-01-12T13:36:31.689Z,9.70
2023-01-12T13:39:21.088Z,10.50
2023-01-12T13:42:34.631Z,11.10
2023-01-12T13:45:23.557Z,8.50
2023-01-12T13:48:17.562Z,9.40
2023-01-12T13:51:15.883Z,9.30
2023-01-12T13:54:15.780Z,9.70
2023-01-12T13:57:18.676Z,7.80
2023-01-12T14:00:13.638Z,9.00
2023-01-12T14:03:04.264Z,9.20
2023-01-12T14:06:14.706Z,9.50
2023-01-12T14:09:39.486Z,10.50
2023-01-12T14:13:03.902Z,8.40
2023-01-12T14:16:38.886Z,11.10
2023-01-12T14:19:52.630Z,7.90
2023-01-12T14:22:39.760Z,9.00
2023-01-12T14:25:27.039Z,9.40
2023-01-12T14:28:23.044Z,10.50
2023-01-12T14:31:16.662Z,9.10
2023-01-12T14:34:05.155Z,8.50
2023-01-12T14:36:52.495Z,9.10
2023-01-12T14:39:41.375Z,10.00
2023-01-12T14:42:46.886Z,9.00
2023-01-12T14:45:53.014Z,8.60
2023-01-12T14:48:58.626Z,9.10
2023-01-12T14:51:58.706Z,10.90
2023-01-12T14:54:45.058Z,9.40
2023-01-12T14:57:35.023Z,9.30
2023-01-12T15:00:25.475Z,10.90
2023-01-12T15:03:26.307Z,8.90
2023-01-12T15:06:17.130Z,9.20
2023-01-12T15:09:04.954Z,7.70
2023-01-12T15:11:51.735Z,6.90
2023-01-12T15:14:38.463Z,8.30
2023-01-12T15:17:56.829Z,8.10
2023-01-12T15:21:04.739Z,9.00
2023-01-12T15:24:09.962Z,10.70
2023-01-12T15:27:06.146Z,9.20
2023-01-12T15:29:53.215Z,10.50
2023-01-12T15:32:47.281Z,11.40
2023-01-12T15:35:35.454Z,10.70
2023-01-12T15:38:22.052Z,11.10
2023-01-12T15:41:50.800Z,12.00
2023-01-12T15:44:38.794Z,10.10
2023-01-12T15:47:25.242Z,11.10
2023-01-12T15:50:11.785Z,11.30
2023-01-12T15:53:00.230Z,12.00
2023-01-12T15:55:48.062Z,11.90
2023-01-12T15:58:34.672Z,10.20
2023-01-12T16:01:21.458Z,12.50
2023-01-12T16:04:41.505Z,11.90
2023-01-12T16:07:23.527Z,11.30
2023-01-12T16:10:11.478Z,11.10
2023-01-12T16:13:03.638Z,13.40
2023-01-12T16:15:50.330Z,11.40
2023-01-12T16:18:37.035Z,13.80
2023-01-12T16:21:23.752Z,13.90
2023-01-12T16:24:10.481Z,12.60
2023-01-12T16:26:58.320Z,14.30
2023-01-12T16:29:45.440Z,14.00
2023-01-12T16:32:32.388Z,14.70
2023-01-12T16:35:20.137Z,14.70
2023-01-12T16:38:06.422Z,17.00
2023-01-12T16:40:53.141Z,15.70
2023-01-12T16:43:39.943Z,17.20
2023-01-12T16:46:26.512Z,14.30
2023-01-12T16:49:15.381Z,16.60
2023-01-12T16:52:14.092Z,17.60
2023-01-12T16:55:01.409Z,16.20
2023-01-12T16:57:48.099Z,18.00
2023-01-12T17:00:34.708Z,19.00
2023-01-12T17:03:21.252Z,17.70
2023-01-12T17:06:12.586Z,20.30
2023-01-12T17:09:02.616Z,19.80
2023-01-12T17:11:50.438Z,19.00
2023-01-12T17:14:37.016Z,18.50
2023-01-12T17:17:23.580Z,20.00
2023-01-12T17:20:12.309Z,20.70
2023-01-12T17:23:00.272Z,19.70
2023-01-12T17:25:47.056Z,21.20
2023-01-12T17:28:36.646Z,20.00
2023-01-12T17:31:23.810Z,21.60
2023-01-12T17:34:13.526Z,21.80
2023-01-12T17:37:08.378Z,20.10
2023-01-12T17:39:55.035Z,19.50
2023-01-12T17:43:00.276Z,20.50
2023-01-12T17:45:46.841Z,19.70
2023-01-12T17:48:34.094Z,21.30
2023-01-12T17:51:20.654Z,20.90
2023-01-12T17:54:10.755Z,20.90
2023-01-12T17:57:42.775Z,20.20
2023-01-12T18:00:32.293Z,18.50
2023-01-12T18:03:18.761Z,17.40
2023-01-12T18:06:11.968Z,19.90
2023-01-12T18:09:01.732Z,17.80
2023-01-12T18:11:48.594Z,18.80
2023-01-12T18:14:37.761Z,19.50
2023-01-12T18:17:24.313Z,18.90
2023-01-12T18:20:11.329Z,20.10
2023-01-12T18:22:57.903Z,19.80
2023-01-12T18:25:44.569Z,19.40
2023-01-12T18:28:31.298Z,19.30
2023-01-12T18:31:20.679Z,19.60
2023-01-12T18:34:07.922Z,16.90
2023-01-12T18:36:54.436Z,18.30
2023-01-12T18:39:43.983Z,17.30
2023-01-12T18:42:53.016Z,17.80
2023-01-12T18:45:39.555Z,19.90
2023-01-12T18:48:27.763Z,18.80
2023-01-12T18:51:35.791Z,16.40
2023-01-12T18:54:25.062Z,17.60
2023-01-12T18:57:14.159Z,19.30
2023-01-12T19:00:16.299Z,18.10
2023-01-12T19:03:04.483Z,19.10
2023-01-12T19:05:57.206Z,17.10
2023-01-12T19:09:02.420Z,17.10
2023-01-12T19:11:49.481Z,18.40
2023-01-12T19:14:54.555Z,16.20
2023-01-12T19:17:42.153Z,17.40
2023-01-12T19:20:30.299Z,17.30
2023-01-12T19:23:35.468Z,17.40
2023-01-12T19:26:40.630Z,16.10
2023-01-12T19:29:26.981Z,16.70
2023-01-12T19:32:14.723Z,16.70
2023-01-12T19:35:10.145Z,17.70
2023-01-12T19:37:57.608Z,16.20
2023-01-12T19:40:52.398Z,17.20
2023-01-12T19:43:45.399Z,17.10
2023-01-12T19:46:33.166Z,17.20
2023-01-12T19:49:19.667Z,19.90
2023-01-12T19:52:06.536Z,17.50
2023-01-12T19:54:53.323Z,16.30
2023-01-12T19:57:43.167Z,19.60
2023-01-12T20:00:30.057Z,18.00
2023-01-12T20:03:22.170Z,18.00
2023-01-12T20:06:09.059Z,17.40
2023-01-12T20:08:56.087Z,16.60
2023-01-12T20:11:42.984Z,17.10
2023-01-12T20:14:30.683Z,16.90
2023-01-12T20:17:17.157Z,16.80
2023-01-12T20:20:08.376Z,15.70
2023-01-12T20:22:56.406Z,16.60
2023-01-12T20:25:44.801Z,16.50
2023-01-12T20:28:31.524Z,15.20
2023-01-12T20:31:23.227Z,15.90
2023-01-12T20:34:10.973Z,16.90
2023-01-12T20:37:00.812Z,15.90
2023-01-12T20:39:49.648Z,16.90
2023-01-12T20:42:37.466Z,16.90
2023-01-12T20:45:24.540Z,16.70
2023-01-12T20:48:14.096Z,16.50
2023-01-12T20:51:01.602Z,15.00
2023-01-12T20:53:48.011Z,16.50
2023-01-12T20:56:34.897Z,16.80
2023-01-12T20:59:21.190Z,16.40
2023-01-12T21:02:08.267Z,17.20
2023-01-12T21:04:55.349Z,15.10
2023-01-12T21:07:42.376Z,14.00
2023-01-12T21:10:29.097Z,18.20
2023-01-12T21:13:16.179Z,16.20
2023-01-12T21:16:04.971Z,18.50
2023-01-12T21:18:51.444Z,17.20
2023-01-12T21:21:37.959Z,14.80
2023-01-12T21:24:28.568Z,15.70
2023-01-12T21:27:19.617Z,15.10
2023-01-12T21:30:07.003Z,16.90
2023-01-12T21:32:55.027Z,16.60
2023-01-12T21:35:44.797Z,15.10
2023-01-12T21:38:34.577Z,14.60
2023-01-12T21:41:21.729Z,15.50
2023-01-12T21:44:08.310Z,15.30
2023-01-12T21:46:54.951Z,16.50
2023-01-12T21:49:41.850Z,16.60
2023-01-12T21:52:33.104Z,14.50
2023-01-12T21:55:22.105Z,15.20
2023-01-12T21:58:08.463Z,15.60
2023-01-12T22:00:56.229Z,17.80
2023-01-12T22:03:45.630Z,14.20
2023-01-12T22:06:32.329Z,15.10
2023-01-12T22:09:19.612Z,14.30
2023-01-12T22:12:06.907Z,14.00
2023-01-12T22:14:53.500Z,14.80
2023-01-12T22:17:40.521Z,17.00
2023-01-12T22:20:30.985Z,14.40
2023-01-12T22:23:17.360Z,15.50
2023-01-12T22:26:06.201Z,17.70
2023-01-12T22:28:52.728Z,18.60
2023-01-12T22:31:39.437Z,16.00
2023-01-12T22:34:26.506Z,17.80
2023-01-12T22:37:13.530Z,14.80
2023-01-12T22:40:00.767Z,17.80
2023-01-12T22:43:06.316Z,16.70
2023-01-12T22:45:58.043Z,15.60
2023-01-12T22:48:51.612Z,16.00
2023-01-12T22:51:39.035Z,15.50
2023-01-12T22:54:25.737Z,18.40
2023-01-12T22:57:13.263Z,15.60
2023-01-12T22:59:59.755Z,15.80
2023-01-12T23:03:02.465Z,16.00
2023-01-12T23:05:56.338Z,16.60
2023-01-12T23:08:43.994Z,17.60
2023-01-12T23:11:30.525Z,14.70
2023-01-12T23:14:17.222Z,14.40
2023-01-12T23:17:04.022Z,15.80
2023-01-12T23:19:50.509Z,15.70
2023-01-12T23:22:37.380Z,15.60
2023-01-12T23:25:24.116Z,13.00
2023-01-12T23:28:13.708Z,15.60
2023-01-12T23:31:10.954Z,16.80
2023-01-12T23:33:57.736Z,15.90
2023-01-12T23:36:44.291Z,15.90
2023-01-12T23:39:31.189Z,16.00
2023-01-12T23:42:17.922Z,13.40
2023-01-12T23:45:05.130Z,13.30
2023-01-12T23:47:51.594Z,15.70
2023-01-12T23:50:38.228Z,15.70
2023-01-12T23:53:25.764Z,15.10
2023-01-12T23:56:16.963Z,15.50
2023-01-12T23:59:03.872Z,14.10
